Terminal Aerodrome Forecast
Issued by NWS Jackson, MS

Home | Current Version | Previous Version | Text Only | Print | Product List | Glossary On
Versions: 1 2 3 4 5 6 7 8 9 10 11 12 13 14
079
FTUS44 KJAN 222327
TAFGWO
TAF
KGWO 222327Z 2300/2324 26010KT 6SM -SHRA BKN025 OVC050
     FM230300 29014G23KT 6SM -SHRA BKN018 OVC025
     FM230500 31015G27KT 6SM -RA BKN008 OVC025
     FM230800 31017G26KT P6SM BKN015 OVC025
     FM231000 32014KT P6SM BKN015 BKN250
     FM231200 32010KT P6SM FEW015 SCT250=

USA.gov is the U.S. government's official web portal to all federal, state and local government web resources and services.